sensor_id;sensor_type;location;lat;lon;timestamp;pressure;altitude;pressure_sealevel;temperature;humidity
20119;BME280;10220;42.716;23.306;2024-01-10T00:02:19;96363.50;;;-3.80;100.00
20119;BME280;10220;42.716;23.306;2024-01-10T00:04:45;96358.88;;;-3.87;100.00
20119;BME280;10220;42.716;23.306;2024-01-10T00:07:10;96372.53;;;-3.76;100.00
20119;BME280;10220;42.716;23.306;2024-01-10T00:09:36;96367.91;;;-3.83;100.00
20119;BME280;10220;42.716;23.306;2024-01-10T00:12:01;96367.41;;;-3.74;100.00
20119;BME280;10220;42.716;23.306;2024-01-10T00:14:27;96339.63;;;-3.90;100.00
20119;BME280;10220;42.716;23.306;2024-01-10T00:16:52;96377.91;;;-3.52;100.00
20119;BME280;10220;42.716;23.306;2024-01-10T00:19:18;96390.84;;;-3.57;100.00
20119;BME280;10220;42.716;23.306;2024-01-10T00:21:43;96352.06;;;-3.71;100.00
20119;BME280;10220;42.716;23.306;2024-01-10T00:24:09;96377.00;;;-3.38;100.00
20119;BME280;10220;42.716;23.306;2024-01-10T00:26:34;96384.31;;;-3.47;100.00
20119;BME280;10220;42.716;23.306;2024-01-10T00:29:00;96396.63;;;-3.41;100.00
20119;BME280;10220;42.716;23.306;2024-01-10T00:31:25;96387.66;;;-3.33;100.00
20119;BME280;10220;42.716;23.306;2024-01-10T00:33:51;96398.53;;;-3.31;100.00
20119;BME280;10220;42.716;23.306;2024-01-10T00:36:16;96386.50;;;-3.13;100.00
20119;BME280;10220;42.716;23.306;2024-01-10T00:38:42;96393.75;;;-3.21;100.00
20119;BME280;10220;42.716;23.306;2024-01-10T00:41:13;96356.91;;;-3.54;100.00
20119;BME280;10220;42.716;23.306;2024-01-10T00:43:39;96397.25;;;-3.51;100.00
20119;BME280;10220;42.716;23.306;2024-01-10T00:46:05;96357.19;;;-3.59;100.00
20119;BME280;10220;42.716;23.306;2024-01-10T00:48:30;96393.56;;;-3.46;100.00
20119;BME280;10220;42.716;23.306;2024-01-10T00:50:55;96391.03;;;-3.32;100.00
20119;BME280;10220;42.716;23.306;2024-01-10T00:53:21;96381.25;;;-3.52;100.00
20119;BME280;10220;42.716;23.306;2024-01-10T00:55:46;96353.59;;;-3.55;100.00
20119;BME280;10220;42.716;23.306;2024-01-10T00:58:12;96390.09;;;-3.31;100.00
20119;BME280;10220;42.716;23.306;2024-01-10T01:00:38;96387.13;;;-3.38;100.00
20119;BME280;10220;42.716;23.306;2024-01-10T01:03:06;96379.56;;;-3.95;100.00
20119;BME280;10220;42.716;23.306;2024-01-10T01:05:31;96369.78;;;-3.71;100.00
20119;BME280;10220;42.716;23.306;2024-01-10T01:07:57;96378.38;;;-3.46;100.00
20119;BME280;10220;42.716;23.306;2024-01-10T01:10:22;96363.16;;;-3.60;100.00
20119;BME280;10220;42.716;23.306;2024-01-10T01:12:48;96372.59;;;-3.20;100.00
20119;BME280;10220;42.716;23.306;2024-01-10T01:15:13;96360.47;;;-3.29;100.00
20119;BME280;10220;42.716;23.306;2024-01-10T01:17:39;96396.19;;;-3.34;100.00
20119;BME280;10220;42.716;23.306;2024-01-10T01:20:05;96383.50;;;-3.20;100.00
20119;BME280;10220;42.716;23.306;2024-01-10T01:22:31;96362.53;;;-3.08;100.00
20119;BME280;10220;42.716;23.306;2024-01-10T01:24:56;96351.59;;;-3.22;100.00
20119;BME280;10220;42.716;23.306;2024-01-10T01:27:22;96381.88;;;-2.93;100.00
20119;BME280;10220;42.716;23.306;2024-01-10T01:29:50;96343.09;;;-3.07;100.00
20119;BME280;10220;42.716;23.306;2024-01-10T01:32:16;96382.53;;;-2.90;100.00
20119;BME280;10220;42.716;23.306;2024-01-10T01:34:42;96375.72;;;-2.75;100.00
20119;BME280;10220;42.716;23.306;2024-01-10T01:37:07;96377.22;;;-2.73;100.00
20119;BME280;10220;42.716;23.306;2024-01-10T01:39:32;96367.16;;;-2.74;100.00
20119;BME280;10220;42.716;23.306;2024-01-10T01:41:58;96362.44;;;-2.66;100.00
20119;BME280;10220;42.716;23.306;2024-01-10T01:44:23;96390.59;;;-2.57;100.00
20119;BME280;10220;42.716;23.306;2024-01-10T01:46:49;96359.31;;;-2.70;100.00
20119;BME280;10220;42.716;23.306;2024-01-10T01:49:15;96362.19;;;-2.62;100.00
20119;BME280;10220;42.716;23.306;2024-01-10T01:51:41;96374.84;;;-2.62;100.00
20119;BME280;10220;42.716;23.306;2024-01-10T01:54:07;96372.94;;;-3.26;100.00
20119;BME280;10220;42.716;23.306;2024-01-10T01:56:40;96363.91;;;-3.30;100.00
20119;BME280;10220;42.716;23.306;2024-01-10T01:59:07;96353.69;;;-3.29;100.00
20119;BME280;10220;42.716;23.306;2024-01-10T02:01:33;96354.66;;;-3.03;100.00
20119;BME280;10220;42.716;23.306;2024-01-10T02:04:01;96337.34;;;-3.23;100.00
20119;BME280;10220;42.716;23.306;2024-01-10T02:06:26;96351.38;;;-2.92;100.00
20119;BME280;10220;42.716;23.306;2024-01-10T02:08:52;96352.03;;;-2.88;100.00
20119;BME280;10220;42.716;23.306;2024-01-10T02:11:18;96340.34;;;-2.91;100.00
20119;BME280;10220;42.716;23.306;2024-01-10T02:13:46;96351.03;;;-2.86;100.00
20119;BME280;10220;42.716;23.306;2024-01-10T02:16:11;96346.78;;;-2.99;100.00
20119;BME280;10220;42.716;23.306;2024-01-10T02:18:38;96352.13;;;-3.03;100.00
20119;BME280;10220;42.716;23.306;2024-01-10T02:21:03;96351.69;;;-2.96;100.00
20119;BME280;10220;42.716;23.306;2024-01-10T02:23:28;96350.66;;;-2.93;100.00
20119;BME280;10220;42.716;23.306;2024-01-10T02:25:54;96349.75;;;-2.92;100.00
20119;BME280;10220;42.716;23.306;2024-01-10T02:28:20;96350.38;;;-2.89;100.00
20119;BME280;10220;42.716;23.306;2024-01-10T02:30:45;96341.06;;;-2.89;100.00
20119;BME280;10220;42.716;23.306;2024-01-10T02:33:12;96346.41;;;-2.79;100.00
20119;BME280;10220;42.716;23.306;2024-01-10T02:35:37;96315.03;;;-3.04;100.00
20119;BME280;10220;42.716;23.306;2024-01-10T02:38:04;96344.75;;;-2.80;100.00
20119;BME280;10220;42.716;23.306;2024-01-10T02:40:29;96349.63;;;-2.77;100.00
20119;BME280;10220;42.716;23.306;2024-01-10T02:42:55;96313.94;;;-3.00;100.00
20119;BME280;10220;42.716;23.306;2024-01-10T02:45:20;96344.13;;;-2.84;100.00
20119;BME280;10220;42.716;23.306;2024-01-10T02:47:45;96342.13;;;-2.79;100.00
20119;BME280;10220;42.716;23.306;2024-01-10T02:50:11;96359.06;;;-2.79;98.09
20119;BME280;10220;42.716;23.306;2024-01-10T02:52:37;96352.06;;;-2.76;96.17
20119;BME280;10220;42.716;23.306;2024-01-10T02:55:02;96358.13;;;-2.78;95.24
20119;BME280;10220;42.716;23.306;2024-01-10T02:57:28;96343.94;;;-2.81;94.25
20119;BME280;10220;42.716;23.306;2024-01-10T02:59:53;96347.44;;;-2.69;94.36
20119;BME280;10220;42.716;23.306;2024-01-10T03:02:19;96343.03;;;-2.80;94.83
20119;BME280;10220;42.716;23.306;2024-01-10T03:04:44;96350.31;;;-2.61;95.67
20119;BME280;10220;42.716;23.306;2024-01-10T03:07:10;96336.31;;;-2.81;95.83
20119;BME280;10220;42.716;23.306;2024-01-10T03:09:36;96353.41;;;-2.70;95.41
20119;BME280;10220;42.716;23.306;2024-01-10T03:12:01;96352.25;;;-2.65;95.97
20119;BME280;10220;42.716;23.306;2024-01-10T03:14:27;96346.16;;;-2.62;95.85
20119;BME280;10220;42.716;23.306;2024-01-10T03:16:52;96348.41;;;-3.12;98.07
20119;BME280;10220;42.716;23.306;2024-01-10T03:19:18;96360.03;;;-3.36;100.00
20119;BME280;10220;42.716;23.306;2024-01-10T03:21:44;96348.44;;;-3.40;100.00
20119;BME280;10220;42.716;23.306;2024-01-10T03:24:09;96362.91;;;-3.55;100.00
20119;BME280;10220;42.716;23.306;2024-01-10T03:26:35;96359.19;;;-3.22;100.00
20119;BME280;10220;42.716;23.306;2024-01-10T03:29:00;96329.16;;;-3.14;100.00
20119;BME280;10220;42.716;23.306;2024-01-10T03:31:27;96367.78;;;-2.97;100.00
20119;BME280;10220;42.716;23.306;2024-01-10T03:33:54;96363.59;;;-2.98;100.00
20119;BME280;10220;42.716;23.306;2024-01-10T03:36:19;96359.63;;;-3.02;100.00
20119;BME280;10220;42.716;23.306;2024-01-10T03:38:45;96361.72;;;-2.94;100.00
20119;BME280;10220;42.716;23.306;2024-01-10T03:41:14;96343.44;;;-2.99;100.00
20119;BME280;10220;42.716;23.306;2024-01-10T03:43:40;96362.25;;;-2.90;100.00
20119;BME280;10220;42.716;23.306;2024-01-10T03:46:06;96355.66;;;-3.06;100.00
20119;BME280;10220;42.716;23.306;2024-01-10T03:48:31;96349.97;;;-3.09;100.00
20119;BME280;10220;42.716;23.306;2024-01-10T03:50:57;96347.75;;;-2.88;100.00
20119;BME280;10220;42.716;23.306;2024-01-10T03:53:22;96357.09;;;-2.88;100.00
20119;BME280;10220;42.716;23.306;2024-01-10T03:55:48;96367.13;;;-2.87;100.00
20119;BME280;10220;42.716;23.306;2024-01-10T03:58:13;96360.41;;;-2.74;100.00
20119;BME280;10220;42.716;23.306;2024-01-10T04:00:39;96364.50;;;-2.85;100.00
20119;BME280;10220;42.716;23.306;2024-01-10T04:03:04;96363.38;;;-2.67;100.00
20119;BME280;10220;42.716;23.306;2024-01-10T04:05:29;96362.19;;;-2.62;100.00
20119;BME280;10220;42.716;23.306;2024-01-10T04:07:55;96363.38;;;-2.67;100.00
20119;BME280;10220;42.716;23.306;2024-01-10T04:10:22;96368.09;;;-2.75;100.00
20119;BME280;10220;42.716;23.306;2024-01-10T04:12:47;96364.94;;;-2.79;100.00
20119;BME280;10220;42.716;23.306;2024-01-10T04:15:13;96368.00;;;-2.74;100.00
20119;BME280;10220;42.716;23.306;2024-01-10T04:17:39;96370.16;;;-2.68;100.00
20119;BME280;10220;42.716;23.306;2024-01-10T04:20:05;96358.97;;;-2.78;100.00
20119;BME280;10220;42.716;23.306;2024-01-10T04:22:31;96368.34;;;-2.66;100.00
20119;BME280;10220;42.716;23.306;2024-01-10T04:24:58;96374.13;;;-2.64;100.00
20119;BME280;10220;42.716;23.306;2024-01-10T04:27:23;96339.78;;;-2.82;100.00
20119;BME280;10220;42.716;23.306;2024-01-10T04:29:49;96373.34;;;-2.78;100.00
20119;BME280;10220;42.716;23.306;2024-01-10T04:32:15;96373.41;;;-2.66;100.00
20119;BME280;10220;42.716;23.306;2024-01-10T04:34:40;96368.91;;;-2.89;100.00
20119;BME280;10220;42.716;23.306;2024-01-10T04:37:06;96383.72;;;-3.23;100.00
20119;BME280;10220;42.716;23.306;2024-01-10T04:39:35;96379.09;;;-3.58;100.00
20119;BME280;10220;42.716;23.306;2024-01-10T04:42:01;96377.75;;;-3.36;100.00
20119;BME280;10220;42.716;23.306;2024-01-10T04:44:27;96397.31;;;-3.67;100.00
20119;BME280;10220;42.716;23.306;2024-01-10T04:46:52;96398.44;;;-3.29;100.00
20119;BME280;10220;42.716;23.306;2024-01-10T04:49:18;96409.84;;;-3.08;100.00
20119;BME280;10220;42.716;23.306;2024-01-10T04:51:46;96401.16;;;-3.04;100.00
20119;BME280;10220;42.716;23.306;2024-01-10T04:54:12;96408.38;;;-3.12;100.00
20119;BME280;10220;42.716;23.306;2024-01-10T04:56:38;96403.84;;;-2.93;100.00
20119;BME280;10220;42.716;23.306;2024-01-10T04:59:04;96409.00;;;-2.81;100.00
20119;BME280;10220;42.716;23.306;2024-01-10T05:01:30;96413.13;;;-2.66;100.00
20119;BME280;10220;42.716;23.306;2024-01-10T05:03:56;96417.50;;;-3.38;97.72
20119;BME280;10220;42.716;23.306;2024-01-10T05:06:21;96386.97;;;-3.35;100.00
20119;BME280;10220;42.716;23.306;2024-01-10T05:08:47;96398.63;;;-3.04;99.95
20119;BME280;10220;42.716;23.306;2024-01-10T05:11:13;96405.94;;;-3.00;98.55
20119;BME280;10220;42.716;23.306;2024-01-10T05:13:40;96385.75;;;-3.01;97.19
20119;BME280;10220;42.716;23.306;2024-01-10T05:16:05;96386.84;;;-2.92;95.03
20119;BME280;10220;42.716;23.306;2024-01-10T05:18:31;96395.97;;;-2.89;92.58
20119;BME280;10220;42.716;23.306;2024-01-10T05:20:57;96406.66;;;-2.84;90.64
20119;BME280;10220;42.716;23.306;2024-01-10T05:23:23;96402.75;;;-2.76;88.64
20119;BME280;10220;42.716;23.306;2024-01-10T05:25:49;96383.47;;;-2.78;85.66
20119;BME280;10220;42.716;23.306;2024-01-10T05:28:15;96412.06;;;-2.76;81.84
20119;BME280;10220;42.716;23.306;2024-01-10T05:30:40;96403.44;;;-3.14;80.74
20119;BME280;10220;42.716;23.306;2024-01-10T05:33:08;96422.50;;;-3.08;81.54
20119;BME280;10220;42.716;23.306;2024-01-10T05:35:33;96416.69;;;-2.96;80.82
20119;BME280;10220;42.716;23.306;2024-01-10T05:38:01;96417.16;;;-2.76;79.76
20119;BME280;10220;42.716;23.306;2024-01-10T05:40:28;96386.84;;;-2.92;77.76
20119;BME280;10220;42.716;23.306;2024-01-10T05:42:55;96418.59;;;-2.72;76.50
20119;BME280;10220;42.716;23.306;2024-01-10T05:45:21;96425.72;;;-2.65;75.75
20119;BME280;10220;42.716;23.306;2024-01-10T05:47:46;96428.97;;;-2.63;76.46
20119;BME280;10220;42.716;23.306;2024-01-10T05:50:13;96430.50;;;-2.60;76.05
20119;BME280;10220;42.716;23.306;2024-01-10T05:52:39;96424.59;;;-3.01;75.69
20119;BME280;10220;42.716;23.306;2024-01-10T05:55:05;96418.66;;;-3.43;75.69
20119;BME280;10220;42.716;23.306;2024-01-10T05:57:36;96433.09;;;-3.30;74.39
20119;BME280;10220;42.716;23.306;2024-01-10T06:00:03;96442.56;;;-3.33;75.52
20119;BME280;10220;42.716;23.306;2024-01-10T06:02:30;96442.94;;;-3.25;75.39
20119;BME280;10220;42.716;23.306;2024-01-10T06:04:56;96442.75;;;-3.08;77.28
20119;BME280;10220;42.716;23.306;2024-01-10T06:07:21;96421.03;;;-3.26;76.72
20119;BME280;10220;42.716;23.306;2024-01-10T06:09:47;96437.97;;;-3.13;77.38
20119;BME280;10220;42.716;23.306;2024-01-10T06:12:13;96433.06;;;-3.16;75.98
20119;BME280;10220;42.716;23.306;2024-01-10T06:14:39;96457.34;;;-3.55;79.34
20119;BME280;10220;42.716;23.306;2024-01-10T06:17:04;96446.78;;;-3.48;84.90
20119;BME280;10220;42.716;23.306;2024-01-10T06:19:31;96430.56;;;-3.30;86.61
20119;BME280;10220;42.716;23.306;2024-01-10T06:21:57;96438.94;;;-3.29;88.18
20119;BME280;10220;42.716;23.306;2024-01-10T06:24:22;96447.38;;;-3.15;87.91
20119;BME280;10220;42.716;23.306;2024-01-10T06:26:48;96469.44;;;-3.03;88.65
20119;BME280;10220;42.716;23.306;2024-01-10T06:29:15;96463.09;;;-3.24;88.44
20119;BME280;10220;42.716;23.306;2024-01-10T06:31:40;96473.16;;;-2.94;86.55
20119;BME280;10220;42.716;23.306;2024-01-10T06:34:06;96449.09;;;-3.15;82.41
20119;BME280;10220;42.716;23.306;2024-01-10T06:36:31;96441.66;;;-3.04;80.89
20119;BME280;10220;42.716;23.306;2024-01-10T06:38:57;96470.81;;;-2.70;81.07
20119;BME280;10220;42.716;23.306;2024-01-10T06:41:22;96463.28;;;-2.99;82.18
20119;BME280;10220;42.716;23.306;2024-01-10T06:43:52;96449.19;;;-3.17;79.00
20119;BME280;10220;42.716;23.306;2024-01-10T06:46:19;96487.78;;;-3.13;76.58
20119;BME280;10220;42.716;23.306;2024-01-10T06:48:45;96487.22;;;-3.18;77.32
20119;BME280;10220;42.716;23.306;2024-01-10T06:51:12;96490.53;;;-3.02;79.47
20119;BME280;10220;42.716;23.306;2024-01-10T06:53:38;96495.75;;;-3.05;76.47
20119;BME280;10220;42.716;23.306;2024-01-10T06:56:04;96486.75;;;-3.39;77.22
20119;BME280;10220;42.716;23.306;2024-01-10T06:58:30;96483.06;;;-3.33;74.82
20119;BME280;10220;42.716;23.306;2024-01-10T07:00:56;96490.22;;;-3.26;75.26
20119;BME280;10220;42.716;23.306;2024-01-10T07:03:21;96501.72;;;-3.20;76.85
20119;BME280;10220;42.716;23.306;2024-01-10T07:05:47;96502.78;;;-3.24;74.95
20119;BME280;10220;42.716;23.306;2024-01-10T07:08:14;96467.31;;;-3.38;74.56
20119;BME280;10220;42.716;23.306;2024-01-10T07:10:39;96498.81;;;-3.28;74.29
20119;BME280;10220;42.716;23.306;2024-01-10T07:13:05;96503.91;;;-3.00;74.22
20119;BME280;10220;42.716;23.306;2024-01-10T07:15:49;96497.94;;;-2.99;73.94
20119;BME280;10220;42.716;23.306;2024-01-10T07:18:18;96502.81;;;-2.96;74.09
20119;BME280;10220;42.716;23.306;2024-01-10T07:20:43;96495.41;;;-2.99;76.16
20119;BME280;10220;42.716;23.306;2024-01-10T07:23:09;96501.38;;;-3.00;77.60
20119;BME280;10220;42.716;23.306;2024-01-10T07:25:35;96491.63;;;-3.06;80.98
20119;BME280;10220;42.716;23.306;2024-01-10T07:28:02;96500.38;;;-2.98;82.82
20119;BME280;10220;42.716;23.306;2024-01-10T07:30:28;96504.75;;;-2.58;84.90
20119;BME280;10220;42.716;23.306;2024-01-10T07:32:58;96486.16;;;-2.73;87.84
20119;BME280;10220;42.716;23.306;2024-01-10T07:35:23;96489.53;;;-2.72;83.93
20119;BME280;10220;42.716;23.306;2024-01-10T07:37:49;96519.28;;;-2.34;83.97
20119;BME280;10220;42.716;23.306;2024-01-10T07:40:16;96525.69;;;-2.29;83.21
20119;BME280;10220;42.716;23.306;2024-01-10T07:42:42;96514.41;;;-2.51;82.92
20119;BME280;10220;42.716;23.306;2024-01-10T07:45:08;96519.13;;;-2.31;82.20
20119;BME280;10220;42.716;23.306;2024-01-10T07:47:35;96507.81;;;-2.13;79.11
20119;BME280;10220;42.716;23.306;2024-01-10T07:50:08;96499.94;;;-2.77;77.93
20119;BME280;10220;42.716;23.306;2024-01-10T07:52:34;96517.53;;;-3.31;80.26
20119;BME280;10220;42.716;23.306;2024-01-10T07:55:00;96526.38;;;-2.94;84.86
20119;BME280;10220;42.716;23.306;2024-01-10T07:57:27;96521.66;;;-2.87;86.67
20119;BME280;10220;42.716;23.306;2024-01-10T07:59:53;96525.53;;;-3.09;86.77
20119;BME280;10220;42.716;23.306;2024-01-10T08:02:19;96512.84;;;-3.23;87.38
20119;BME280;10220;42.716;23.306;2024-01-10T08:04:44;96482.81;;;-3.58;87.40
20119;BME280;10220;42.716;23.306;2024-01-10T08:07:10;96523.13;;;-2.69;85.92
20119;BME280;10220;42.716;23.306;2024-01-10T08:09:36;96526.44;;;-2.40;86.77
20119;BME280;10220;42.716;23.306;2024-01-10T08:12:05;96489.69;;;-2.47;86.66
20119;BME280;10220;42.716;23.306;2024-01-10T08:14:30;96463.75;;;-2.92;87.88
20119;BME280;10220;42.716;23.306;2024-01-10T08:16:56;96535.69;;;-2.81;90.25
20119;BME280;10220;42.716;23.306;2024-01-10T08:19:26;96522.84;;;-2.92;79.87
20119;BME280;10220;42.716;23.306;2024-01-10T08:21:52;96501.19;;;-2.56;81.32
20119;BME280;10220;42.716;23.306;2024-01-10T08:24:21;96529.41;;;-2.34;79.64
20119;BME280;10220;42.716;23.306;2024-01-10T08:26:50;96502.31;;;-2.74;75.14
20119;BME280;10220;42.716;23.306;2024-01-10T08:29:20;96527.00;;;-2.77;67.80
20119;BME280;10220;42.716;23.306;2024-01-10T08:31:47;96526.13;;;-2.62;61.67
20119;BME280;10220;42.716;23.306;2024-01-10T08:34:13;96531.84;;;-2.33;64.85
20119;BME280;10220;42.716;23.306;2024-01-10T08:36:38;96532.47;;;-1.49;65.73
20119;BME280;10220;42.716;23.306;2024-01-10T08:39:04;96516.91;;;-0.81;68.43
20119;BME280;10220;42.716;23.306;2024-01-10T08:41:30;96522.06;;;-1.19;62.77
20119;BME280;10220;42.716;23.306;2024-01-10T08:43:56;96500.34;;;-0.61;63.65
20119;BME280;10220;42.716;23.306;2024-01-10T08:46:22;96491.97;;;-1.13;59.32
20119;BME280;10220;42.716;23.306;2024-01-10T08:48:47;96527.94;;;-0.20;58.78
20119;BME280;10220;42.716;23.306;2024-01-10T08:51:13;96535.09;;;-0.25;58.61
20119;BME280;10220;42.716;23.306;2024-01-10T08:53:42;96531.47;;;-0.83;58.34
20119;BME280;10220;42.716;23.306;2024-01-10T08:56:08;96519.66;;;-1.09;62.54
20119;BME280;10220;42.716;23.306;2024-01-10T08:58:33;96513.75;;;-1.21;60.72
20119;BME280;10220;42.716;23.306;2024-01-10T09:00:59;96517.34;;;-1.50;59.90
20119;BME280;10220;42.716;23.306;2024-01-10T09:03:24;96530.56;;;-1.45;59.67
20119;BME280;10220;42.716;23.306;2024-01-10T09:05:50;96518.34;;;-1.40;61.36
20119;BME280;10220;42.716;23.306;2024-01-10T09:08:15;96477.91;;;-1.56;64.05
20119;BME280;10220;42.716;23.306;2024-01-10T09:10:41;96510.88;;;-1.17;62.07
20119;BME280;10220;42.716;23.306;2024-01-10T09:13:07;96514.50;;;-0.95;60.50
20119;BME280;10220;42.716;23.306;2024-01-10T09:15:32;96516.63;;;-1.01;59.99
20119;BME280;10220;42.716;23.306;2024-01-10T09:17:58;96507.09;;;-1.36;58.67
20119;BME280;10220;42.716;23.306;2024-01-10T09:20:23;96509.06;;;-1.15;58.22
20119;BME280;10220;42.716;23.306;2024-01-10T09:22:58;96506.81;;;-1.19;57.67
20119;BME280;10220;42.716;23.306;2024-01-10T09:25:25;96508.41;;;-1.43;55.78
20119;BME280;10220;42.716;23.306;2024-01-10T09:27:51;96484.19;;;-1.61;57.25
20119;BME280;10220;42.716;23.306;2024-01-10T09:30:17;96486.59;;;-1.72;56.97
20119;BME280;10220;42.716;23.306;2024-01-10T09:32:44;96471.75;;;-1.78;58.25
20119;BME280;10220;42.716;23.306;2024-01-10T09:35:49;96459.91;;;-1.65;57.57
20119;BME280;10220;42.716;23.306;2024-01-10T09:41:54;96445.53;;;-2.17;56.29
20119;BME280;10220;42.716;23.306;2024-01-10T09:44:20;96441.91;;;-1.87;58.14
20119;BME280;10220;42.716;23.306;2024-01-10T09:47:16;96440.78;;;-1.83;57.15
20119;BME280;10220;42.716;23.306;2024-01-10T09:49:42;96431.44;;;-1.82;56.90
20119;BME280;10220;42.716;23.306;2024-01-10T09:52:39;96501.00;;;-1.46;56.14
20119;BME280;10220;42.716;23.306;2024-01-10T09:55:07;96494.03;;;-1.18;55.89
20119;BME280;10220;42.716;23.306;2024-01-10T09:57:33;96491.31;;;-0.90;55.91
20119;BME280;10220;42.716;23.306;2024-01-10T10:00:01;96493.53;;;-0.73;55.68
20119;BME280;10220;42.716;23.306;2024-01-10T10:02:31;96484.06;;;-0.11;54.95
20119;BME280;10220;42.716;23.306;2024-01-10T10:05:04;96467.03;;;0.25;53.42
20119;BME280;10220;42.716;23.306;2024-01-10T10:07:59;96459.91;;;0.18;53.24
20119;BME280;10220;42.716;23.306;2024-01-10T10:10:25;96472.97;;;0.71;53.26
20119;BME280;10220;42.716;23.306;2024-01-10T10:12:51;96470.03;;;0.99;53.78
20119;BME280;10220;42.716;23.306;2024-01-10T10:15:22;96466.22;;;1.04;53.17
20119;BME280;10220;42.716;23.306;2024-01-10T10:17:49;96455.59;;;1.32;52.03
20119;BME280;10220;42.716;23.306;2024-01-10T10:20:21;96453.59;;;1.03;52.23
20119;BME280;10220;42.716;23.306;2024-01-10T10:25:36;96448.50;;;1.68;52.95
20119;BME280;10220;42.716;23.306;2024-01-10T10:28:04;96448.41;;;1.37;52.48
20119;BME280;10220;42.716;23.306;2024-01-10T10:30:31;96438.53;;;2.18;53.07
20119;BME280;10220;42.716;23.306;2024-01-10T10:32:56;96437.69;;;1.65;52.08
20119;BME280;10220;42.716;23.306;2024-01-10T10:35:22;96436.25;;;1.93;52.08
20119;BME280;10220;42.716;23.306;2024-01-10T10:37:49;96431.59;;;1.98;51.99
20119;BME280;10220;42.716;23.306;2024-01-10T10:40:18;96426.50;;;2.81;100.00
20119;BME280;10220;42.716;23.306;2024-01-10T10:42:45;96419.06;;;2.58;61.63
20119;BME280;10220;42.716;23.306;2024-01-10T10:45:16;96398.06;;;2.95;74.56
20119;BME280;10220;42.716;23.306;2024-01-10T10:47:59;96403.69;;;4.16;88.75
20119;BME280;10220;42.716;23.306;2024-01-10T10:50:28;96374.91;;;3.84;84.32
20119;BME280;10220;42.716;23.306;2024-01-10T10:52:55;96401.78;;;4.08;62.22
20119;BME280;10220;42.716;23.306;2024-01-10T10:55:22;96391.47;;;4.93;68.34
20119;BME280;10220;42.716;23.306;2024-01-10T10:57:49;96378.38;;;4.87;61.81
20119;BME280;10220;42.716;23.306;2024-01-10T11:00:18;96381.00;;;4.02;53.46
20119;BME280;10220;42.716;23.306;2024-01-10T11:02:44;96367.91;;;3.86;54.52
20119;BME280;10220;42.716;23.306;2024-01-10T11:05:15;96378.94;;;3.87;52.95
20119;BME280;10220;42.716;23.306;2024-01-10T11:07:43;96368.72;;;3.29;50.25
20119;BME280;10220;42.716;23.306;2024-01-10T11:10:32;96387.00;;;2.94;50.05
20119;BME280;10220;42.716;23.306;2024-01-10T11:24:16;96348.97;;;2.40;51.57
20119;BME280;10220;42.716;23.306;2024-01-10T11:26:45;96358.09;;;2.53;51.37
20119;BME280;10220;42.716;23.306;2024-01-10T11:29:10;96357.28;;;2.53;52.14
20119;BME280;10220;42.716;23.306;2024-01-10T11:31:38;96338.25;;;2.66;52.18
20119;BME280;10220;42.716;23.306;2024-01-10T11:34:10;96349.19;;;2.78;51.99
20119;BME280;10220;42.716;23.306;2024-01-10T11:36:38;96363.13;;;2.24;51.53
20119;BME280;10220;42.716;23.306;2024-01-10T11:39:04;96348.13;;;2.30;53.47
20119;BME280;10220;42.716;23.306;2024-01-10T11:41:35;96351.13;;;2.04;52.17
20119;BME280;10220;42.716;23.306;2024-01-10T11:46:56;96333.25;;;2.04;53.88
20119;BME280;10220;42.716;23.306;2024-01-10T11:49:22;96341.44;;;2.18;54.31
20119;BME280;10220;42.716;23.306;2024-01-10T11:51:52;96331.31;;;2.17;53.74
20119;BME280;10220;42.716;23.306;2024-01-10T11:54:36;96329.22;;;2.01;52.82
20119;BME280;10220;42.716;23.306;2024-01-10T11:57:03;96318.97;;;1.81;53.72
20119;BME280;10220;42.716;23.306;2024-01-10T11:59:33;96306.56;;;1.34;55.37
20119;BME280;10220;42.716;23.306;2024-01-10T12:05:37;96306.31;;;1.79;54.55
20119;BME280;10220;42.716;23.306;2024-01-10T12:15:00;96299.38;;;2.22;57.00
20119;BME280;10220;42.716;23.306;2024-01-10T12:17:44;96313.28;;;2.49;56.88
20119;BME280;10220;42.716;23.306;2024-01-10T12:23:39;96286.78;;;1.05;57.77
20119;BME280;10220;42.716;23.306;2024-01-10T12:26:09;96304.75;;;1.57;59.19
20119;BME280;10220;42.716;23.306;2024-01-10T12:28:37;96298.06;;;1.45;58.58
20119;BME280;10220;42.716;23.306;2024-01-10T12:31:03;96298.66;;;1.37;58.07
20119;BME280;10220;42.716;23.306;2024-01-10T12:33:29;96309.16;;;1.66;58.28
20119;BME280;10220;42.716;23.306;2024-01-10T12:36:07;96301.13;;;1.70;60.38
20119;BME280;10220;42.716;23.306;2024-01-10T12:38:35;96273.53;;;1.64;61.83
20119;BME280;10220;42.716;23.306;2024-01-10T12:50:24;96286.03;;;2.19;63.29
20119;BME280;10220;42.716;23.306;2024-01-10T12:52:53;96301.72;;;1.94;64.64
20119;BME280;10220;42.716;23.306;2024-01-10T12:55:44;96285.56;;;1.93;67.64
20119;BME280;10220;42.716;23.306;2024-01-10T13:04:57;96262.84;;;0.86;71.76
20119;BME280;10220;42.716;23.306;2024-01-10T13:07:23;96301.84;;;1.19;69.72
20119;BME280;10220;42.716;23.306;2024-01-10T13:09:48;96303.13;;;1.56;72.55
20119;BME280;10220;42.716;23.306;2024-01-10T13:12:14;96312.03;;;1.72;71.35
20119;BME280;10220;42.716;23.306;2024-01-10T13:14:39;96305.59;;;1.88;70.10
20119;BME280;10220;42.716;23.306;2024-01-10T13:17:04;96287.09;;;2.16;86.01
20119;BME280;10220;42.716;23.306;2024-01-10T13:19:30;96307.63;;;1.94;70.51
20119;BME280;10220;42.716;23.306;2024-01-10T13:21:55;96300.03;;;1.83;71.06
20119;BME280;10220;42.716;23.306;2024-01-10T13:24:21;96291.06;;;1.89;69.52
20119;BME280;10220;42.716;23.306;2024-01-10T13:26:46;96295.19;;;2.21;81.10
20119;BME280;10220;42.716;23.306;2024-01-10T13:29:13;96286.34;;;1.84;71.51
20119;BME280;10220;42.716;23.306;2024-01-10T13:31:39;96281.09;;;2.47;81.52
20119;BME280;10220;42.716;23.306;2024-01-10T13:34:04;96290.22;;;1.99;71.83
20119;BME280;10220;42.716;23.306;2024-01-10T13:36:30;96288.13;;;1.93;67.83
20119;BME280;10220;42.716;23.306;2024-01-10T13:38:55;96289.81;;;2.04;73.90